createdAt,value
2022-09-23T00:01:28.318Z,75.66
2022-09-23T00:03:59.797Z,75.66
2022-09-23T00:06:30.875Z,75.59
2022-09-23T00:08:58.979Z,75.79
2022-09-23T00:11:31.476Z,75.86
2022-09-23T00:14:00.417Z,76.00
2022-09-23T00:16:34.380Z,75.99
2022-09-23T00:19:03.795Z,76.16
2022-09-23T00:21:32.250Z,76.10
2022-09-23T00:24:00.599Z,76.22
2022-09-23T00:26:28.789Z,76.46
2022-09-23T00:28:56.980Z,76.42
2022-09-23T00:31:27.345Z,76.61
2022-09-23T00:34:00.565Z,76.54
2022-09-23T00:36:29.743Z,76.64
2022-09-23T00:38:58.118Z,76.77
2022-09-23T00:41:26.954Z,76.97
2022-09-23T00:43:57.552Z,76.90
2022-09-23T00:46:28.790Z,76.81
2022-09-23T00:49:15.716Z,76.75
2022-09-23T00:51:55.388Z,76.91
2022-09-23T00:54:25.876Z,76.91
2022-09-23T00:56:55.646Z,77.09
2022-09-23T00:59:26.191Z,77.48
2022-09-23T01:02:00.265Z,77.67
2022-09-23T01:04:30.197Z,78.68
2022-09-23T01:06:58.630Z,78.45
2022-09-23T01:09:26.936Z,78.41
2022-09-23T01:12:10.176Z,78.63
2022-09-23T01:14:47.440Z,78.72
2022-09-23T01:17:34.720Z,79.03
2022-09-23T01:20:20.898Z,79.16
2022-09-23T01:23:22.523Z,79.32
2022-09-23T01:26:05.697Z,79.24
2022-09-23T01:29:03.886Z,79.32
2022-09-23T01:31:51.511Z,79.46
2022-09-23T01:34:31.543Z,79.33
2022-09-23T01:37:19.390Z,79.33
2022-09-23T01:40:14.804Z,79.44
2022-09-23T01:42:51.226Z,79.41
2022-09-23T01:45:43.507Z,79.52
2022-09-23T01:48:33.054Z,79.56
2022-09-23T01:51:05.985Z,79.67
2022-09-23T01:54:04.343Z,79.60
2022-09-23T01:56:40.755Z,79.72
2022-09-23T01:59:30.269Z,80.07
2022-09-23T02:02:03.322Z,80.21
2022-09-23T02:04:39.817Z,80.31
2022-09-23T02:07:22.553Z,80.90
2022-09-23T02:10:11.313Z,79.69
2022-09-23T02:12:44.112Z,79.09
2022-09-23T02:15:16.701Z,79.66
2022-09-23T02:17:54.171Z,79.65
2022-09-23T02:20:29.855Z,79.83
2022-09-23T02:23:12.457Z,79.31
2022-09-23T02:25:52.087Z,79.62
2022-09-23T02:28:36.024Z,79.69
2022-09-23T02:31:50.185Z,79.27
2022-09-23T02:34:35.029Z,78.59
2022-09-23T02:37:37.207Z,78.68
2022-09-23T02:40:11.435Z,78.36
2022-09-23T02:43:00.609Z,79.00
2022-09-23T02:45:28.812Z,78.72
2022-09-23T02:48:04.534Z,78.95
2022-09-23T02:50:33.895Z,79.09
2022-09-23T02:53:02.449Z,79.36
2022-09-23T02:55:33.691Z,79.07
2022-09-23T02:58:03.227Z,79.11
2022-09-23T03:00:50.300Z,79.16
2022-09-23T03:03:45.170Z,79.15
2022-09-23T03:06:19.378Z,78.83
2022-09-23T03:08:54.699Z,78.63
2022-09-23T03:11:22.943Z,78.78
2022-09-23T03:14:18.833Z,78.90
2022-09-23T03:16:54.357Z,79.13
2022-09-23T03:19:22.393Z,78.91
2022-09-23T03:22:33.747Z,79.05
2022-09-23T03:25:10.658Z,78.95
2022-09-23T03:27:42.550Z,78.89
2022-09-23T03:30:13.034Z,78.80
2022-09-23T03:32:47.126Z,78.82
2022-09-23T03:35:15.251Z,78.74
2022-09-23T03:37:59.695Z,78.64
2022-09-23T03:40:38.506Z,78.43
2022-09-23T03:43:06.921Z,78.32
2022-09-23T03:45:35.353Z,78.28
2022-09-23T03:48:03.620Z,78.06
2022-09-23T03:50:31.688Z,78.10
2022-09-23T03:52:59.800Z,78.16
2022-09-23T03:55:27.975Z,78.10
2022-09-23T03:57:56.417Z,78.14
2022-09-23T04:00:24.494Z,78.09
2022-09-23T04:02:52.545Z,78.01
2022-09-23T04:05:21.175Z,77.78
2022-09-23T04:07:50.963Z,77.87
2022-09-23T04:10:19.287Z,77.93
2022-09-23T04:12:47.410Z,77.87
2022-09-23T04:15:15.736Z,78.02
2022-09-23T04:17:43.781Z,78.00
2022-09-23T04:20:11.813Z,77.91
2022-09-23T04:22:39.972Z,77.90
2022-09-23T04:25:08.623Z,77.70
2022-09-23T04:27:38.046Z,77.68
2022-09-23T04:30:07.177Z,77.55
2022-09-23T04:32:39.559Z,77.53
2022-09-23T04:35:08.389Z,77.36
2022-09-23T04:37:36.590Z,77.23
2022-09-23T04:40:08.412Z,77.12
2022-09-23T04:42:39.727Z,77.25
2022-09-23T04:45:08.334Z,77.16
2022-09-23T04:47:37.409Z,77.24
2022-09-23T04:50:05.873Z,77.12
2022-09-23T04:52:33.977Z,77.38
2022-09-23T04:55:02.197Z,77.37
2022-09-23T04:57:30.590Z,77.55
2022-09-23T04:59:59.007Z,77.53
2022-09-23T05:02:28.372Z,77.30
2022-09-23T05:04:59.223Z,76.83
2022-09-23T05:07:27.379Z,76.44
2022-09-23T05:09:55.544Z,76.43
2022-09-23T05:12:23.844Z,76.40
2022-09-23T05:14:51.820Z,76.22
2022-09-23T05:17:21.100Z,76.30
2022-09-23T05:19:49.357Z,76.37
2022-09-23T05:22:17.519Z,76.38
2022-09-23T05:24:46.181Z,76.30
2022-09-23T05:27:14.175Z,76.17
2022-09-23T05:29:42.418Z,76.17
2022-09-23T05:32:10.432Z,76.27
2022-09-23T05:34:38.876Z,76.11
2022-09-23T05:37:07.324Z,75.79
2022-09-23T05:39:35.428Z,75.66
2022-09-23T05:42:04.239Z,75.52
2022-09-23T05:44:32.377Z,75.70
2022-09-23T05:47:00.537Z,76.02
2022-09-23T05:49:48.327Z,75.82
2022-09-23T05:52:17.493Z,75.89
2022-09-23T05:54:45.553Z,75.64
2022-09-23T05:57:13.662Z,75.72
2022-09-23T05:59:42.444Z,75.75
2022-09-23T06:02:10.548Z,75.50
2022-09-23T06:04:38.757Z,75.33
2022-09-23T06:07:06.851Z,74.87
2022-09-23T06:09:36.683Z,74.65
2022-09-23T06:12:06.510Z,74.84
2022-09-23T06:14:34.764Z,74.69
2022-09-23T06:17:02.913Z,74.74
2022-09-23T06:19:31.074Z,74.44
2022-09-23T06:21:59.314Z,74.43
2022-09-23T06:24:31.328Z,74.03
2022-09-23T06:27:01.205Z,73.60
2022-09-23T06:29:30.957Z,73.07
2022-09-23T06:31:59.774Z,72.36
2022-09-23T06:34:28.101Z,72.14
2022-09-23T06:36:56.218Z,72.62
2022-09-23T06:39:24.613Z,70.24
2022-09-23T06:41:52.787Z,69.36
2022-09-23T06:44:20.964Z,68.53
2022-09-23T06:46:51.007Z,67.94
2022-09-23T06:49:20.844Z,67.69
2022-09-23T06:51:48.963Z,68.17
2022-09-23T06:54:16.928Z,67.35
2022-09-23T06:56:48.021Z,66.47
2022-09-23T06:59:17.101Z,64.73
2022-09-23T07:01:47.620Z,64.04
2022-09-23T07:04:15.817Z,60.10
2022-09-23T07:06:43.940Z,62.04
2022-09-23T07:09:12.248Z,58.07
2022-09-23T07:11:40.333Z,56.24
2022-09-23T07:14:09.868Z,55.58
2022-09-23T07:16:39.030Z,52.62
2022-09-23T07:19:07.305Z,50.00
2022-09-23T07:21:35.427Z,49.06
2022-09-23T07:24:03.949Z,46.98
2022-09-23T07:26:34.189Z,45.85
2022-09-23T07:29:05.984Z,46.51
2022-09-23T07:31:39.590Z,42.16
2022-09-23T07:34:11.746Z,40.07
2022-09-23T07:36:41.093Z,40.76
2022-09-23T07:39:12.022Z,42.39
2022-09-23T07:41:41.710Z,42.04
2022-09-23T07:44:11.761Z,39.98
2022-09-23T07:46:40.344Z,41.62
2022-09-23T07:49:08.661Z,41.64
2022-09-23T07:51:38.472Z,42.20
2022-09-23T07:54:10.545Z,41.83
2022-09-23T07:56:39.454Z,39.35
2022-09-23T07:59:09.041Z,40.64
2022-09-23T08:01:41.371Z,39.94
2022-09-23T08:04:19.048Z,38.00
2022-09-23T08:06:50.387Z,38.92
2022-09-23T08:09:20.562Z,36.74
2022-09-23T08:11:50.784Z,37.64
2022-09-23T08:14:19.258Z,36.63
2022-09-23T08:16:47.743Z,36.99
2022-09-23T08:19:16.549Z,38.82
2022-09-23T08:21:46.753Z,39.34
2022-09-23T08:24:19.649Z,38.07
2022-09-23T08:26:49.124Z,38.37
2022-09-23T08:29:19.308Z,38.59
2022-09-23T08:31:49.593Z,34.89
2022-09-23T08:34:19.146Z,35.20
2022-09-23T08:36:47.244Z,36.57
2022-09-23T08:39:17.576Z,37.96
2022-09-23T08:41:58.373Z,37.86
2022-09-23T08:44:45.439Z,38.93
2022-09-23T08:47:22.714Z,39.51
2022-09-23T08:50:13.196Z,40.39
2022-09-23T08:52:52.148Z,40.47
2022-09-23T08:55:24.166Z,39.80
2022-09-23T09:01:14.146Z,36.81
2022-09-23T09:03:51.921Z,36.94
2022-09-23T09:06:53.473Z,38.55
2022-09-23T09:09:40.938Z,38.19
2022-09-23T09:12:17.033Z,38.74
2022-09-23T09:15:03.234Z,39.15
2022-09-23T09:18:01.237Z,38.92
2022-09-23T09:20:47.787Z,40.19
2022-09-23T09:23:20.123Z,40.62
2022-09-23T09:25:50.918Z,41.09
2022-09-23T09:28:31.091Z,40.66
2022-09-23T09:31:29.744Z,40.71
2022-09-23T09:34:03.751Z,40.07
2022-09-23T09:36:55.839Z,40.44
2022-09-23T09:39:26.209Z,40.31
2022-09-23T09:41:58.602Z,40.04
2022-09-23T09:44:53.150Z,40.11
2022-09-23T09:47:48.013Z,39.90
2022-09-23T09:50:21.717Z,40.36
2022-09-23T09:52:51.182Z,38.76
2022-09-23T09:55:27.586Z,39.36
2022-09-23T09:58:01.786Z,39.22
2022-09-23T10:00:43.102Z,38.10
2022-09-23T10:03:14.091Z,38.76
2022-09-23T10:05:47.652Z,36.78
2022-09-23T10:08:35.082Z,36.76
2022-09-23T10:11:04.947Z,36.59
2022-09-23T10:13:33.164Z,36.92
2022-09-23T10:16:04.099Z,37.25
2022-09-23T10:18:47.031Z,36.91
2022-09-23T10:21:17.776Z,36.88
2022-09-23T10:23:50.161Z,36.93
2022-09-23T10:26:32.273Z,37.90
2022-09-23T10:29:20.662Z,38.65
2022-09-23T10:31:53.053Z,39.02
2022-09-23T10:34:27.677Z,39.61
2022-09-23T10:37:02.716Z,40.17
2022-09-23T10:39:49.217Z,40.28
2022-09-23T10:42:38.588Z,41.23
2022-09-23T10:45:39.825Z,41.96
2022-09-23T10:48:36.680Z,42.46
2022-09-23T10:51:11.850Z,42.42
2022-09-23T10:54:01.453Z,42.51
2022-09-23T10:56:39.957Z,41.39
2022-09-23T10:59:40.286Z,41.84
2022-09-23T11:02:14.442Z,40.73
2022-09-23T11:05:18.900Z,40.39
2022-09-23T11:08:05.159Z,40.58
2022-09-23T11:11:11.697Z,39.84
2022-09-23T11:13:54.706Z,39.63
2022-09-23T11:16:42.742Z,40.21
2022-09-23T11:19:18.182Z,40.08
2022-09-23T11:21:58.336Z,39.64
2022-09-23T11:25:14.179Z,40.30
2022-09-23T11:27:54.165Z,40.80
2022-09-23T11:30:22.427Z,41.01
2022-09-23T11:33:14.916Z,41.23
2022-09-23T11:35:50.836Z,40.98
2022-09-23T11:38:25.333Z,40.16
2022-09-23T11:41:02.844Z,40.52
2022-09-23T11:43:40.004Z,39.83
2022-09-23T11:46:20.631Z,40.19
2022-09-23T11:49:27.184Z,41.54
2022-09-23T11:52:20.500Z,41.31
2022-09-23T11:55:09.559Z,40.54
2022-09-23T11:57:51.582Z,41.07
2022-09-23T12:00:23.257Z,41.36
2022-09-23T12:03:05.535Z,40.90
2022-09-23T12:06:00.526Z,40.08
2022-09-23T12:08:32.439Z,40.92
2022-09-23T12:11:37.798Z,40.11
2022-09-23T12:14:34.811Z,40.20
2022-09-23T12:17:14.929Z,39.89
2022-09-23T12:20:24.896Z,40.18
2022-09-23T12:23:25.953Z,40.73
2022-09-23T12:26:01.825Z,41.81
2022-09-23T12:28:38.874Z,42.54
2022-09-23T12:31:13.865Z,42.78
2022-09-23T12:33:49.852Z,41.98
2022-09-23T12:36:27.041Z,42.01
2022-09-23T12:39:25.777Z,41.34
2022-09-23T12:41:58.584Z,40.85
2022-09-23T12:44:29.840Z,40.88
2022-09-23T12:47:36.281Z,38.62
2022-09-23T12:50:42.834Z,38.10
2022-09-23T12:53:35.435Z,38.55
2022-09-23T12:56:19.480Z,39.18
2022-09-23T12:58:48.377Z,39.11
2022-09-23T13:01:20.231Z,38.17
2022-09-23T13:04:13.200Z,39.38
2022-09-23T13:07:07.357Z,39.27
2022-09-23T13:09:42.866Z,38.78
2022-09-23T13:12:34.829Z,39.13
2022-09-23T13:15:06.451Z,39.46
2022-09-23T13:17:37.813Z,39.57
2022-09-23T13:20:17.850Z,39.01
2022-09-23T13:22:49.189Z,38.93
2022-09-23T13:25:24.232Z,39.50
2022-09-23T13:27:57.788Z,40.84
2022-09-23T13:30:27.047Z,40.91
2022-09-23T13:33:18.883Z,39.58
2022-09-23T13:35:51.356Z,40.53
2022-09-23T13:38:26.276Z,41.46
2022-09-23T13:41:22.331Z,42.47
2022-09-23T13:43:59.426Z,42.26
2022-09-23T13:46:34.185Z,41.95
2022-09-23T13:49:03.259Z,42.03
2022-09-23T13:51:35.085Z,41.54
2022-09-23T13:54:05.175Z,41.61
2022-09-23T13:56:35.360Z,41.48
2022-09-23T13:59:24.775Z,41.08
2022-09-23T14:02:07.097Z,40.67
2022-09-23T14:04:35.216Z,40.16
2022-09-23T14:07:04.465Z,38.63
2022-09-23T14:09:35.710Z,38.34
2022-09-23T14:12:06.915Z,38.44
2022-09-23T14:14:37.665Z,37.56
2022-09-23T14:17:07.860Z,38.15
2022-09-23T14:19:37.340Z,39.44
2022-09-23T14:22:08.197Z,39.74
2022-09-23T14:24:40.069Z,40.71
2022-09-23T14:27:18.049Z,41.17
2022-09-23T14:29:49.462Z,41.91
2022-09-23T14:32:24.803Z,42.48
2022-09-23T14:35:04.994Z,41.69
2022-09-23T14:37:56.715Z,41.86
2022-09-23T14:40:26.393Z,42.47
2022-09-23T14:43:12.171Z,43.17
2022-09-23T14:45:41.560Z,43.80
2022-09-23T14:48:24.175Z,44.17
2022-09-23T14:50:57.427Z,45.31
2022-09-23T14:53:31.945Z,44.34
2022-09-23T14:56:11.606Z,44.52
2022-09-23T14:58:54.665Z,44.73
2022-09-23T15:01:32.379Z,44.85
2022-09-23T15:04:23.647Z,45.95
2022-09-23T15:06:56.449Z,46.30
2022-09-23T15:09:45.176Z,47.59
2022-09-23T15:12:21.423Z,47.61
2022-09-23T15:14:53.681Z,48.06
2022-09-23T15:17:30.550Z,48.81
2022-09-23T15:20:02.586Z,48.19
2022-09-23T15:22:30.914Z,47.58
2022-09-23T15:25:32.753Z,47.43
2022-09-23T15:28:13.033Z,48.08
2022-09-23T15:30:44.316Z,48.69
2022-09-23T15:33:17.561Z,48.59
2022-09-23T15:35:49.349Z,48.72
2022-09-23T15:38:17.875Z,49.51
2022-09-23T15:40:49.233Z,50.40
2022-09-23T15:43:45.265Z,50.35
2022-09-23T15:46:46.053Z,50.69
2022-09-23T15:49:34.053Z,51.75
2022-09-23T15:52:04.433Z,51.73
2022-09-23T15:54:33.817Z,52.58
2022-09-23T15:57:02.451Z,53.07
2022-09-23T15:59:31.754Z,53.63
2022-09-23T16:02:10.549Z,54.14
2022-09-23T16:04:41.377Z,54.60
2022-09-23T16:07:16.489Z,54.49
2022-09-23T16:09:44.765Z,55.10
2022-09-23T16:12:13.404Z,54.57
2022-09-23T16:14:41.497Z,54.17
2022-09-23T16:17:13.425Z,54.48
2022-09-23T16:19:41.458Z,54.14
2022-09-23T16:22:14.598Z,54.74
2022-09-23T16:24:42.930Z,53.93
2022-09-23T16:27:34.169Z,53.28
2022-09-23T16:30:02.369Z,54.18
2022-09-23T16:32:30.773Z,55.44
2022-09-23T16:34:59.016Z,53.80
2022-09-23T16:37:27.105Z,53.29
2022-09-23T16:39:55.465Z,53.04
2022-09-23T16:42:26.773Z,53.32
2022-09-23T16:44:57.829Z,52.98
2022-09-23T16:47:32.045Z,53.19
2022-09-23T16:50:05.247Z,53.82
2022-09-23T16:52:33.502Z,54.03
2022-09-23T16:55:01.455Z,54.67
2022-09-23T16:57:30.230Z,54.93
2022-09-23T17:00:16.778Z,55.76
2022-09-23T17:03:03.229Z,55.54
2022-09-23T17:05:31.234Z,55.33
2022-09-23T17:08:00.231Z,56.85
2022-09-23T17:10:33.044Z,57.39
2022-09-23T17:13:01.025Z,58.19
2022-09-23T17:15:29.064Z,56.82
2022-09-23T17:17:57.072Z,56.32
2022-09-23T17:20:25.014Z,56.86
2022-09-23T17:22:55.180Z,56.31
2022-09-23T17:25:23.171Z,56.37
2022-09-23T17:27:51.511Z,56.72
2022-09-23T17:30:19.599Z,56.20
2022-09-23T17:32:47.694Z,56.44
2022-09-23T17:35:15.765Z,55.78
2022-09-23T17:37:43.841Z,56.35
2022-09-23T17:40:12.267Z,57.53
2022-09-23T17:42:43.625Z,57.45
2022-09-23T17:45:12.947Z,56.48
2022-09-23T17:47:41.980Z,56.34
2022-09-23T17:50:10.228Z,56.70
2022-09-23T17:52:38.214Z,57.62
2022-09-23T17:55:07.022Z,57.21
2022-09-23T17:57:35.041Z,57.31
2022-09-23T18:00:03.400Z,58.82
2022-09-23T18:02:39.779Z,59.28
2022-09-23T18:05:08.345Z,58.67
2022-09-23T18:07:36.455Z,58.71
2022-09-23T18:10:04.903Z,59.08
2022-09-23T18:12:33.172Z,60.63
2022-09-23T18:15:01.495Z,60.26
2022-09-23T18:17:29.568Z,59.81
2022-09-23T18:19:57.675Z,59.40
2022-09-23T18:22:25.717Z,59.28
2022-09-23T18:24:53.856Z,59.72
2022-09-23T18:27:21.918Z,61.05
2022-09-23T18:29:50.102Z,60.62
2022-09-23T18:32:18.190Z,60.25
2022-09-23T18:34:46.268Z,60.16
2022-09-23T18:37:16.122Z,60.22
2022-09-23T18:39:44.847Z,60.23
2022-09-23T18:42:14.252Z,60.79
2022-09-23T18:44:42.329Z,61.63
2022-09-23T18:47:30.280Z,61.65
2022-09-23T18:50:16.596Z,62.14
2022-09-23T18:52:44.597Z,62.42
2022-09-23T18:55:12.943Z,62.81
2022-09-23T18:57:41.198Z,63.20
2022-09-23T19:00:09.962Z,63.74
2022-09-23T19:02:38.046Z,63.96
2022-09-23T19:05:06.612Z,64.28
2022-09-23T19:07:35.424Z,64.27
2022-09-23T19:10:03.861Z,64.21
2022-09-23T19:12:32.116Z,64.46
2022-09-23T19:15:00.205Z,64.85
2022-09-23T19:17:29.233Z,65.15
2022-09-23T19:19:58.640Z,65.53
2022-09-23T19:22:26.722Z,65.50
2022-09-23T19:24:54.824Z,65.82
2022-09-23T19:27:23.625Z,65.92
2022-09-23T19:29:51.771Z,66.33
2022-09-23T19:32:19.848Z,66.48
2022-09-23T19:34:47.947Z,66.38
2022-09-23T19:37:16.553Z,66.14
2022-09-23T19:39:45.183Z,66.46
2022-09-23T19:42:13.282Z,66.42
2022-09-23T19:44:43.939Z,66.53
2022-09-23T19:47:15.633Z,66.38
2022-09-23T19:49:44.208Z,66.61
2022-09-23T19:52:12.268Z,66.79
2022-09-23T19:54:42.730Z,67.04
2022-09-23T19:57:13.887Z,67.41
2022-09-23T19:59:42.133Z,68.38
2022-09-23T20:02:16.127Z,68.69
2022-09-23T20:04:44.457Z,69.12
2022-09-23T20:07:12.506Z,69.38
2022-09-23T20:09:40.715Z,69.62
2022-09-23T20:12:08.774Z,69.70
2022-09-23T20:14:37.000Z,69.78
2022-09-23T20:17:08.544Z,69.97
2022-09-23T20:19:36.753Z,69.88
2022-09-23T20:22:23.199Z,69.88
2022-09-23T20:24:56.269Z,69.93
2022-09-23T20:27:25.327Z,70.27
2022-09-23T20:29:53.366Z,70.58
2022-09-23T20:32:21.440Z,70.57
2022-09-23T20:34:49.822Z,70.61
2022-09-23T20:37:20.429Z,70.87
2022-09-23T20:39:48.628Z,70.96
2022-09-23T20:42:18.349Z,71.14
2022-09-23T20:44:47.444Z,71.18
2022-09-23T20:47:17.625Z,71.31
2022-09-23T20:49:46.633Z,71.29
2022-09-23T20:52:18.001Z,71.00
2022-09-23T20:54:46.422Z,70.95
2022-09-23T20:57:16.274Z,71.18
2022-09-23T20:59:44.571Z,71.18
2022-09-23T21:02:12.660Z,71.48
2022-09-23T21:04:40.822Z,71.61
2022-09-23T21:07:09.397Z,71.61
2022-09-23T21:09:37.482Z,71.56
2022-09-23T21:12:05.634Z,71.76
2022-09-23T21:14:33.716Z,71.55
2022-09-23T21:17:01.766Z,71.51
2022-09-23T21:19:30.400Z,71.59
2022-09-23T21:21:58.315Z,71.70
2022-09-23T21:25:25.156Z,71.61
2022-09-23T21:27:14.319Z,71.54
2022-09-23T21:29:42.496Z,71.57
2022-09-23T21:32:10.573Z,71.48
2022-09-23T21:34:38.881Z,71.30
2022-09-23T21:37:07.118Z,71.17
2022-09-23T21:39:35.214Z,71.16
2022-09-23T21:42:03.300Z,70.81
2022-09-23T21:44:31.821Z,70.62
2022-09-23T21:46:59.930Z,70.63
2022-09-23T21:49:28.109Z,70.55
2022-09-23T21:51:59.006Z,70.20
2022-09-23T21:54:27.073Z,70.34
2022-09-23T21:56:55.126Z,70.86
2022-09-23T21:59:23.155Z,70.90
2022-09-23T22:01:54.183Z,70.85
2022-09-23T22:04:22.503Z,70.81
2022-09-23T22:06:50.813Z,70.82
2022-09-23T22:09:20.761Z,70.89
2022-09-23T22:12:07.460Z,70.75
2022-09-23T22:14:43.553Z,70.79
2022-09-23T22:17:14.619Z,71.09
2022-09-23T22:19:46.775Z,71.12
2022-09-23T22:22:17.917Z,71.27
2022-09-23T22:24:47.857Z,71.43
2022-09-23T22:27:19.105Z,71.29
2022-09-23T22:30:05.988Z,71.24
2022-09-23T22:32:46.322Z,71.29
2022-09-23T22:35:19.238Z,71.18
2022-09-23T22:37:48.940Z,71.19
2022-09-23T22:40:17.313Z,71.17
2022-09-23T22:42:45.814Z,71.46
2022-09-23T22:45:14.025Z,71.56
2022-09-23T22:47:45.555Z,71.90
2022-09-23T22:50:14.719Z,72.14
2022-09-23T22:52:43.700Z,72.30
2022-09-23T22:55:12.672Z,72.53
2022-09-23T22:57:41.214Z,72.73
2022-09-23T23:00:11.319Z,72.71
2022-09-23T23:02:48.135Z,73.05
2022-09-23T23:05:16.259Z,73.00
2022-09-23T23:07:44.261Z,72.92
2022-09-23T23:10:12.341Z,72.78
2022-09-23T23:12:41.951Z,73.09
2022-09-23T23:15:12.437Z,73.09
2022-09-23T23:17:41.405Z,73.47
2022-09-23T23:20:09.667Z,73.27
2022-09-23T23:22:38.036Z,73.51
2022-09-23T23:25:06.587Z,73.57
2022-09-23T23:27:34.911Z,73.55
2022-09-23T23:30:03.777Z,73.68
2022-09-23T23:32:32.483Z,74.27
2022-09-23T23:35:00.599Z,74.46
2022-09-23T23:37:29.535Z,74.42
2022-09-23T23:39:57.772Z,74.54
2022-09-23T23:42:27.335Z,74.67
2022-09-23T23:44:55.608Z,74.79
2022-09-23T23:47:24.272Z,75.13
2022-09-23T23:49:52.446Z,75.10
2022-09-23T23:52:20.604Z,75.19
2022-09-23T23:54:48.781Z,75.73
2022-09-23T23:57:19.756Z,75.67
2022-09-23T23:59:47.707Z,75.61
